sensor_id;sensor_type;location;lat;lon;timestamp;pressure;altitude;pressure_sealevel;temperature;humidity
28927;BME280;16038;47.692;9.400;2023-03-31T00:01:25;96197.22;;;7.11;100.00
28927;BME280;16038;47.692;9.400;2023-03-31T00:03:51;96197.88;;;7.23;100.00
28927;BME280;16038;47.692;9.400;2023-03-31T00:06:16;96193.75;;;7.30;100.00
28927;BME280;16038;47.692;9.400;2023-03-31T00:08:44;96189.66;;;7.39;100.00
28927;BME280;16038;47.692;9.400;2023-03-31T00:11:10;96173.94;;;7.52;100.00
28927;BME280;16038;47.692;9.400;2023-03-31T00:13:36;96183.22;;;7.47;100.00
28927;BME280;16038;47.692;9.400;2023-03-31T00:16:05;96184.28;;;7.43;100.00
28927;BME280;16038;47.692;9.400;2023-03-31T00:18:31;96184.00;;;7.48;100.00
28927;BME280;16038;47.692;9.400;2023-03-31T00:21:13;96172.09;;;7.56;100.00
28927;BME280;16038;47.692;9.400;2023-03-31T00:23:39;96167.50;;;7.60;100.00
28927;BME280;16038;47.692;9.400;2023-03-31T00:26:04;96162.81;;;7.61;100.00
28927;BME280;16038;47.692;9.400;2023-03-31T00:28:30;96158.41;;;7.53;100.00
28927;BME280;16038;47.692;9.400;2023-03-31T00:30:58;96151.72;;;7.50;100.00
28927;BME280;16038;47.692;9.400;2023-03-31T00:33:24;96146.34;;;7.54;100.00
28927;BME280;16038;47.692;9.400;2023-03-31T00:35:50;96139.09;;;7.61;100.00
28927;BME280;16038;47.692;9.400;2023-03-31T00:38:15;96139.22;;;7.69;100.00
28927;BME280;16038;47.692;9.400;2023-03-31T00:40:44;96125.31;;;7.54;100.00
28927;BME280;16038;47.692;9.400;2023-03-31T00:43:19;96114.50;;;7.58;100.00
28927;BME280;16038;47.692;9.400;2023-03-31T00:45:48;96124.25;;;7.59;100.00
28927;BME280;16038;47.692;9.400;2023-03-31T00:48:15;96120.88;;;7.65;100.00
28927;BME280;16038;47.692;9.400;2023-03-31T00:50:52;96101.81;;;7.65;100.00
28927;BME280;16038;47.692;9.400;2023-03-31T00:53:19;96104.47;;;7.62;100.00
28927;BME280;16038;47.692;9.400;2023-03-31T00:55:50;96109.56;;;7.63;100.00
28927;BME280;16038;47.692;9.400;2023-03-31T00:58:17;96096.00;;;7.67;100.00
28927;BME280;16038;47.692;9.400;2023-03-31T01:00:47;96091.31;;;7.68;100.00
28927;BME280;16038;47.692;9.400;2023-03-31T01:03:13;96090.28;;;7.76;100.00
28927;BME280;16038;47.692;9.400;2023-03-31T01:05:50;96078.16;;;7.73;100.00
28927;BME280;16038;47.692;9.400;2023-03-31T01:08:17;96083.16;;;7.68;100.00
28927;BME280;16038;47.692;9.400;2023-03-31T01:10:44;96069.16;;;7.69;100.00
28927;BME280;16038;47.692;9.400;2023-03-31T01:13:11;96076.22;;;7.74;100.00
28927;BME280;16038;47.692;9.400;2023-03-31T01:15:37;96066.97;;;7.78;100.00
28927;BME280;16038;47.692;9.400;2023-03-31T01:18:03;96069.50;;;7.91;100.00
28927;BME280;16038;47.692;9.400;2023-03-31T01:25:45;96103.31;;;7.86;100.00
28927;BME280;16038;47.692;9.400;2023-03-31T01:28:17;96109.59;;;7.90;100.00
28927;BME280;16038;47.692;9.400;2023-03-31T01:30:56;96120.50;;;7.90;100.00
28927;BME280;16038;47.692;9.400;2023-03-31T01:41:22;96079.78;;;8.01;100.00
28927;BME280;16038;47.692;9.400;2023-03-31T01:46:36;96085.41;;;8.12;100.00
28927;BME280;16038;47.692;9.400;2023-03-31T01:49:23;96073.38;;;8.39;100.00
28927;BME280;16038;47.692;9.400;2023-03-31T01:51:59;96088.06;;;8.31;100.00
28927;BME280;16038;47.692;9.400;2023-03-31T01:56:59;96085.06;;;8.13;100.00
28927;BME280;16038;47.692;9.400;2023-03-31T01:59:27;96080.72;;;8.09;100.00
28927;BME280;16038;47.692;9.400;2023-03-31T02:02:02;96080.38;;;8.14;100.00
28927;BME280;16038;47.692;9.400;2023-03-31T02:04:32;96067.50;;;8.11;100.00
28927;BME280;16038;47.692;9.400;2023-03-31T02:06:59;96054.81;;;7.99;100.00
28927;BME280;16038;47.692;9.400;2023-03-31T02:09:29;96048.53;;;7.95;100.00
28927;BME280;16038;47.692;9.400;2023-03-31T02:11:55;96053.22;;;7.94;100.00
28927;BME280;16038;47.692;9.400;2023-03-31T02:14:23;96033.91;;;7.80;100.00
28927;BME280;16038;47.692;9.400;2023-03-31T02:16:51;96031.22;;;7.60;100.00
28927;BME280;16038;47.692;9.400;2023-03-31T02:19:18;96024.94;;;7.56;100.00
28927;BME280;16038;47.692;9.400;2023-03-31T02:21:46;96025.78;;;7.60;100.00
28927;BME280;16038;47.692;9.400;2023-03-31T02:24:15;96017.19;;;7.81;100.00
28927;BME280;16038;47.692;9.400;2023-03-31T02:26:44;96011.94;;;7.96;100.00
28927;BME280;16038;47.692;9.400;2023-03-31T02:29:13;96017.50;;;8.03;100.00
28927;BME280;16038;47.692;9.400;2023-03-31T02:34:22;96003.44;;;8.01;100.00
28927;BME280;16038;47.692;9.400;2023-03-31T02:36:48;95995.31;;;8.04;100.00
28927;BME280;16038;47.692;9.400;2023-03-31T02:39:15;96008.94;;;8.04;100.00
28927;BME280;16038;47.692;9.400;2023-03-31T02:41:42;96002.03;;;8.11;100.00
28927;BME280;16038;47.692;9.400;2023-03-31T02:44:08;96001.53;;;8.32;100.00
28927;BME280;16038;47.692;9.400;2023-03-31T02:46:33;95999.66;;;8.63;100.00
28927;BME280;16038;47.692;9.400;2023-03-31T02:49:00;96001.66;;;8.69;100.00
28927;BME280;16038;47.692;9.400;2023-03-31T02:54:23;95973.09;;;8.33;100.00
28927;BME280;16038;47.692;9.400;2023-03-31T02:57:05;95953.59;;;8.31;100.00
28927;BME280;16038;47.692;9.400;2023-03-31T03:12:18;95902.84;;;7.65;100.00
28927;BME280;16038;47.692;9.400;2023-03-31T03:19:49;95885.09;;;7.79;100.00
28927;BME280;16038;47.692;9.400;2023-03-31T03:22:14;95889.81;;;8.09;100.00
28927;BME280;16038;47.692;9.400;2023-03-31T03:24:40;95889.34;;;8.37;100.00
28927;BME280;16038;47.692;9.400;2023-03-31T03:27:06;95874.16;;;8.36;100.00
28927;BME280;16038;47.692;9.400;2023-03-31T03:29:32;95873.56;;;8.53;100.00
28927;BME280;16038;47.692;9.400;2023-03-31T03:31:57;95870.84;;;8.53;100.00
28927;BME280;16038;47.692;9.400;2023-03-31T03:34:22;95866.53;;;8.49;100.00
28927;BME280;16038;47.692;9.400;2023-03-31T03:36:49;95868.06;;;8.50;100.00
28927;BME280;16038;47.692;9.400;2023-03-31T03:39:15;95849.41;;;8.52;100.00
28927;BME280;16038;47.692;9.400;2023-03-31T03:41:41;95849.50;;;8.59;100.00
28927;BME280;16038;47.692;9.400;2023-03-31T03:44:06;95856.88;;;8.58;100.00
28927;BME280;16038;47.692;9.400;2023-03-31T03:46:31;95847.09;;;8.54;100.00
28927;BME280;16038;47.692;9.400;2023-03-31T03:48:57;95843.09;;;8.48;100.00
28927;BME280;16038;47.692;9.400;2023-03-31T03:51:22;95840.19;;;8.33;100.00
28927;BME280;16038;47.692;9.400;2023-03-31T03:53:47;95836.41;;;8.41;100.00
28927;BME280;16038;47.692;9.400;2023-03-31T03:56:13;95839.13;;;8.41;100.00
28927;BME280;16038;47.692;9.400;2023-03-31T03:58:38;95823.75;;;8.26;100.00
28927;BME280;16038;47.692;9.400;2023-03-31T04:01:04;95810.22;;;8.37;100.00
28927;BME280;16038;47.692;9.400;2023-03-31T04:03:29;95805.75;;;8.52;100.00
28927;BME280;16038;47.692;9.400;2023-03-31T04:05:55;95783.41;;;8.42;100.00
28927;BME280;16038;47.692;9.400;2023-03-31T04:08:20;95772.94;;;8.45;100.00
28927;BME280;16038;47.692;9.400;2023-03-31T04:10:46;95770.03;;;8.30;100.00
28927;BME280;16038;47.692;9.400;2023-03-31T04:13:13;95752.09;;;8.33;100.00
28927;BME280;16038;47.692;9.400;2023-03-31T04:15:39;95735.78;;;7.99;100.00
28927;BME280;16038;47.692;9.400;2023-03-31T04:18:05;95720.34;;;7.76;100.00
28927;BME280;16038;47.692;9.400;2023-03-31T04:20:30;95709.41;;;7.73;100.00
28927;BME280;16038;47.692;9.400;2023-03-31T04:22:56;95707.97;;;7.82;100.00
28927;BME280;16038;47.692;9.400;2023-03-31T04:25:21;95702.59;;;7.90;100.00
28927;BME280;16038;47.692;9.400;2023-03-31T04:27:50;95710.47;;;7.98;100.00
28927;BME280;16038;47.692;9.400;2023-03-31T04:30:18;95711.66;;;8.01;100.00
28927;BME280;16038;47.692;9.400;2023-03-31T04:32:55;95698.78;;;7.98;100.00
28927;BME280;16038;47.692;9.400;2023-03-31T04:35:21;95691.78;;;8.00;100.00
28927;BME280;16038;47.692;9.400;2023-03-31T04:37:47;95676.03;;;7.83;100.00
28927;BME280;16038;47.692;9.400;2023-03-31T04:40:13;95657.19;;;7.67;100.00
28927;BME280;16038;47.692;9.400;2023-03-31T04:42:38;95645.81;;;7.61;100.00
28927;BME280;16038;47.692;9.400;2023-03-31T04:45:04;95641.94;;;7.62;100.00
28927;BME280;16038;47.692;9.400;2023-03-31T04:47:29;95653.66;;;7.66;100.00
28927;BME280;16038;47.692;9.400;2023-03-31T04:49:55;95647.09;;;7.71;100.00
28927;BME280;16038;47.692;9.400;2023-03-31T04:52:20;95650.25;;;7.77;100.00
28927;BME280;16038;47.692;9.400;2023-03-31T04:54:45;95640.53;;;7.79;100.00
28927;BME280;16038;47.692;9.400;2023-03-31T04:57:11;95636.00;;;7.91;100.00
28927;BME280;16038;47.692;9.400;2023-03-31T04:59:36;95615.31;;;7.86;100.00
28927;BME280;16038;47.692;9.400;2023-03-31T05:02:01;95583.81;;;7.89;100.00
28927;BME280;16038;47.692;9.400;2023-03-31T05:04:26;95572.09;;;7.88;100.00
28927;BME280;16038;47.692;9.400;2023-03-31T05:06:52;95554.63;;;7.93;100.00
28927;BME280;16038;47.692;9.400;2023-03-31T05:09:17;95557.63;;;7.80;100.00
28927;BME280;16038;47.692;9.400;2023-03-31T05:11:44;95553.66;;;7.71;100.00
28927;BME280;16038;47.692;9.400;2023-03-31T05:14:10;95552.84;;;7.70;100.00
28927;BME280;16038;47.692;9.400;2023-03-31T05:16:35;95553.78;;;7.85;100.00
28927;BME280;16038;47.692;9.400;2023-03-31T05:19:00;95541.28;;;7.84;100.00
28927;BME280;16038;47.692;9.400;2023-03-31T05:21:26;95536.97;;;7.79;100.00
28927;BME280;16038;47.692;9.400;2023-03-31T05:23:52;95537.75;;;7.76;100.00
28927;BME280;16038;47.692;9.400;2023-03-31T05:26:17;95550.63;;;7.83;100.00
28927;BME280;16038;47.692;9.400;2023-03-31T05:28:43;95536.22;;;7.82;100.00
28927;BME280;16038;47.692;9.400;2023-03-31T05:31:09;95537.81;;;7.87;100.00
28927;BME280;16038;47.692;9.400;2023-03-31T05:33:35;95530.81;;;7.90;100.00
28927;BME280;16038;47.692;9.400;2023-03-31T05:36:04;95532.03;;;7.96;100.00
28927;BME280;16038;47.692;9.400;2023-03-31T05:38:30;95526.22;;;8.01;100.00
28927;BME280;16038;47.692;9.400;2023-03-31T05:40:55;95527.09;;;8.09;100.00
28927;BME280;16038;47.692;9.400;2023-03-31T05:43:21;95518.84;;;8.01;100.00
28927;BME280;16038;47.692;9.400;2023-03-31T05:45:46;95526.66;;;8.07;100.00
28927;BME280;16038;47.692;9.400;2023-03-31T05:48:11;95533.94;;;8.44;100.00
28927;BME280;16038;47.692;9.400;2023-03-31T05:50:36;95549.31;;;8.70;100.00
28927;BME280;16038;47.692;9.400;2023-03-31T05:53:02;95554.78;;;8.70;100.00
28927;BME280;16038;47.692;9.400;2023-03-31T05:55:27;95561.75;;;8.67;100.00
28927;BME280;16038;47.692;9.400;2023-03-31T05:57:52;95582.44;;;8.68;100.00
28927;BME280;16038;47.692;9.400;2023-03-31T06:00:18;95579.69;;;8.65;100.00
28927;BME280;16038;47.692;9.400;2023-03-31T06:02:44;95594.94;;;8.73;100.00
28927;BME280;16038;47.692;9.400;2023-03-31T06:05:09;95583.72;;;8.92;100.00
28927;BME280;16038;47.692;9.400;2023-03-31T06:07:35;95572.81;;;8.96;100.00
28927;BME280;16038;47.692;9.400;2023-03-31T06:10:01;95555.69;;;8.99;100.00
28927;BME280;16038;47.692;9.400;2023-03-31T06:12:26;95537.31;;;8.96;100.00
28927;BME280;16038;47.692;9.400;2023-03-31T06:14:51;95553.72;;;8.99;100.00
28927;BME280;16038;47.692;9.400;2023-03-31T06:17:17;95595.84;;;8.91;100.00
28927;BME280;16038;47.692;9.400;2023-03-31T06:19:42;95573.22;;;9.02;100.00
28927;BME280;16038;47.692;9.400;2023-03-31T06:22:07;95528.31;;;8.88;100.00
28927;BME280;16038;47.692;9.400;2023-03-31T06:24:32;95545.47;;;8.85;100.00
28927;BME280;16038;47.692;9.400;2023-03-31T06:26:58;95553.28;;;8.90;100.00
28927;BME280;16038;47.692;9.400;2023-03-31T06:29:25;95540.06;;;8.96;100.00
28927;BME280;16038;47.692;9.400;2023-03-31T06:31:51;95557.13;;;8.78;100.00
28927;BME280;16038;47.692;9.400;2023-03-31T06:34:17;95529.44;;;8.80;100.00
28927;BME280;16038;47.692;9.400;2023-03-31T06:36:42;95521.63;;;8.75;100.00
28927;BME280;16038;47.692;9.400;2023-03-31T06:39:07;95514.59;;;8.67;100.00
28927;BME280;16038;47.692;9.400;2023-03-31T06:41:32;95522.47;;;8.83;100.00
28927;BME280;16038;47.692;9.400;2023-03-31T06:43:58;95517.09;;;9.08;100.00
28927;BME280;16038;47.692;9.400;2023-03-31T06:46:23;95511.25;;;9.09;100.00
28927;BME280;16038;47.692;9.400;2023-03-31T06:48:48;95529.56;;;9.09;100.00
28927;BME280;16038;47.692;9.400;2023-03-31T06:51:13;95534.97;;;8.94;100.00
28927;BME280;16038;47.692;9.400;2023-03-31T06:53:39;95560.09;;;9.36;100.00
28927;BME280;16038;47.692;9.400;2023-03-31T06:56:05;95537.84;;;9.37;100.00
28927;BME280;16038;47.692;9.400;2023-03-31T06:58:30;95557.72;;;9.27;100.00
28927;BME280;16038;47.692;9.400;2023-03-31T07:00:56;95564.75;;;9.25;100.00
28927;BME280;16038;47.692;9.400;2023-03-31T07:03:21;95603.34;;;9.19;100.00
28927;BME280;16038;47.692;9.400;2023-03-31T07:05:47;95615.88;;;9.24;100.00
28927;BME280;16038;47.692;9.400;2023-03-31T07:08:12;95624.75;;;9.03;100.00
28927;BME280;16038;47.692;9.400;2023-03-31T07:10:37;95614.22;;;9.09;100.00
28927;BME280;16038;47.692;9.400;2023-03-31T07:13:03;95588.53;;;9.21;100.00
28927;BME280;16038;47.692;9.400;2023-03-31T07:15:28;95559.69;;;9.37;100.00
28927;BME280;16038;47.692;9.400;2023-03-31T07:17:57;95555.09;;;9.92;100.00
28927;BME280;16038;47.692;9.400;2023-03-31T07:20:26;95571.41;;;10.89;100.00
28927;BME280;16038;47.692;9.400;2023-03-31T07:22:52;95565.56;;;10.87;100.00
28927;BME280;16038;47.692;9.400;2023-03-31T07:25:17;95567.13;;;10.88;100.00
28927;BME280;16038;47.692;9.400;2023-03-31T07:27:42;95561.22;;;11.04;100.00
28927;BME280;16038;47.692;9.400;2023-03-31T07:30:10;95569.28;;;11.40;100.00
28927;BME280;16038;47.692;9.400;2023-03-31T07:32:35;95576.66;;;11.50;100.00
28927;BME280;16038;47.692;9.400;2023-03-31T07:35:08;95614.34;;;11.32;100.00
28927;BME280;16038;47.692;9.400;2023-03-31T07:37:37;95642.19;;;11.19;100.00
28927;BME280;16038;47.692;9.400;2023-03-31T07:40:03;95666.03;;;11.33;100.00
28927;BME280;16038;47.692;9.400;2023-03-31T07:42:30;95680.19;;;11.14;100.00
28927;BME280;16038;47.692;9.400;2023-03-31T07:44:55;95709.97;;;10.76;100.00
28927;BME280;16038;47.692;9.400;2023-03-31T07:47:21;95718.19;;;10.50;100.00
28927;BME280;16038;47.692;9.400;2023-03-31T07:49:48;95673.56;;;10.21;100.00
28927;BME280;16038;47.692;9.400;2023-03-31T07:52:14;95672.72;;;10.06;100.00
28927;BME280;16038;47.692;9.400;2023-03-31T07:54:39;95647.72;;;10.01;100.00
28927;BME280;16038;47.692;9.400;2023-03-31T07:57:05;95635.22;;;10.00;100.00
28927;BME280;16038;47.692;9.400;2023-03-31T07:59:32;95631.69;;;10.06;100.00
28927;BME280;16038;47.692;9.400;2023-03-31T08:01:57;95630.56;;;10.36;100.00
28927;BME280;16038;47.692;9.400;2023-03-31T08:04:23;95635.28;;;10.39;100.00
28927;BME280;16038;47.692;9.400;2023-03-31T08:06:48;95633.31;;;10.36;100.00
28927;BME280;16038;47.692;9.400;2023-03-31T08:09:15;95634.09;;;10.44;100.00
28927;BME280;16038;47.692;9.400;2023-03-31T08:11:41;95640.34;;;10.59;100.00
28927;BME280;16038;47.692;9.400;2023-03-31T08:14:07;95645.81;;;10.59;100.00
28927;BME280;16038;47.692;9.400;2023-03-31T08:16:32;95644.63;;;10.81;100.00
28927;BME280;16038;47.692;9.400;2023-03-31T08:18:57;95637.16;;;10.93;100.00
28927;BME280;16038;47.692;9.400;2023-03-31T08:21:22;95624.59;;;11.09;100.00
28927;BME280;16038;47.692;9.400;2023-03-31T08:23:48;95629.34;;;11.90;100.00
28927;BME280;16038;47.692;9.400;2023-03-31T08:26:14;95635.59;;;12.50;100.00
28927;BME280;16038;47.692;9.400;2023-03-31T08:28:42;95653.72;;;13.27;100.00
28927;BME280;16038;47.692;9.400;2023-03-31T08:31:07;95646.94;;;14.55;100.00
28927;BME280;16038;47.692;9.400;2023-03-31T08:33:33;95648.47;;;15.27;91.94
28927;BME280;16038;47.692;9.400;2023-03-31T08:36:02;95648.88;;;14.54;91.65
28927;BME280;16038;47.692;9.400;2023-03-31T08:38:28;95632.41;;;14.00;94.92
28927;BME280;16038;47.692;9.400;2023-03-31T08:41:03;95632.72;;;13.75;96.89
28927;BME280;16038;47.692;9.400;2023-03-31T08:43:34;95622.28;;;13.63;94.10
28927;BME280;16038;47.692;9.400;2023-03-31T08:46:01;95620.28;;;14.21;97.92
28927;BME280;16038;47.692;9.400;2023-03-31T08:50:54;95624.97;;;15.59;92.82
28927;BME280;16038;47.692;9.400;2023-03-31T08:53:28;95648.56;;;15.83;92.03
28927;BME280;16038;47.692;9.400;2023-03-31T08:55:56;95640.53;;;16.42;79.11
28927;BME280;16038;47.692;9.400;2023-03-31T09:01:00;95623.34;;;16.34;73.26
28927;BME280;16038;47.692;9.400;2023-03-31T09:08:54;95609.13;;;15.43;78.14
28927;BME280;16038;47.692;9.400;2023-03-31T09:21:53;95592.72;;;13.70;84.66
28927;BME280;16038;47.692;9.400;2023-03-31T09:24:26;95591.38;;;13.51;87.85
28927;BME280;16038;47.692;9.400;2023-03-31T09:26:54;95585.56;;;13.46;88.76
28927;BME280;16038;47.692;9.400;2023-03-31T09:29:23;95581.19;;;13.48;87.59
28927;BME280;16038;47.692;9.400;2023-03-31T09:31:53;95562.69;;;13.52;87.67
28927;BME280;16038;47.692;9.400;2023-03-31T09:34:30;95574.69;;;13.35;87.64
28927;BME280;16038;47.692;9.400;2023-03-31T09:36:56;95570.84;;;13.25;89.27
28927;BME280;16038;47.692;9.400;2023-03-31T09:39:21;95571.31;;;13.20;88.72
28927;BME280;16038;47.692;9.400;2023-03-31T09:41:48;95555.69;;;13.13;90.56
28927;BME280;16038;47.692;9.400;2023-03-31T09:44:25;95568.38;;;13.69;86.21
28927;BME280;16038;47.692;9.400;2023-03-31T09:46:51;95565.50;;;14.03;83.63
28927;BME280;16038;47.692;9.400;2023-03-31T09:49:18;95600.81;;;13.81;85.51
28927;BME280;16038;47.692;9.400;2023-03-31T09:51:45;95593.84;;;13.42;85.70
28927;BME280;16038;47.692;9.400;2023-03-31T09:56:44;95618.59;;;12.66;92.27
28927;BME280;16038;47.692;9.400;2023-03-31T09:59:14;95629.25;;;11.20;96.54
28927;BME280;16038;47.692;9.400;2023-03-31T10:01:40;95559.38;;;9.82;100.00
28927;BME280;16038;47.692;9.400;2023-03-31T10:04:09;95582.44;;;9.81;100.00
28927;BME280;16038;47.692;9.400;2023-03-31T10:06:40;95577.75;;;9.74;100.00
28927;BME280;16038;47.692;9.400;2023-03-31T10:09:06;95588.34;;;10.08;100.00
28927;BME280;16038;47.692;9.400;2023-03-31T10:11:34;95580.44;;;10.86;100.00
28927;BME280;16038;47.692;9.400;2023-03-31T10:18:53;95562.66;;;12.00;100.00
28927;BME280;16038;47.692;9.400;2023-03-31T10:21:23;95597.22;;;11.87;100.00
28927;BME280;16038;47.692;9.400;2023-03-31T10:23:49;95580.91;;;11.62;100.00
28927;BME280;16038;47.692;9.400;2023-03-31T10:26:27;95584.03;;;11.64;100.00
28927;BME280;16038;47.692;9.400;2023-03-31T10:28:53;95584.13;;;11.46;100.00
28927;BME280;16038;47.692;9.400;2023-03-31T10:31:19;95559.31;;;11.67;100.00
28927;BME280;16038;47.692;9.400;2023-03-31T10:33:48;95541.03;;;12.51;100.00
28927;BME280;16038;47.692;9.400;2023-03-31T10:36:20;95537.94;;;13.18;100.00
28927;BME280;16038;47.692;9.400;2023-03-31T10:38:46;95555.03;;;12.68;100.00
28927;BME280;16038;47.692;9.400;2023-03-31T10:41:16;95547.84;;;12.77;100.00
28927;BME280;16038;47.692;9.400;2023-03-31T10:43:43;95537.00;;;12.63;100.00
28927;BME280;16038;47.692;9.400;2023-03-31T10:46:12;95510.00;;;12.54;100.00
28927;BME280;16038;47.692;9.400;2023-03-31T10:48:38;95511.19;;;13.22;100.00
28927;BME280;16038;47.692;9.400;2023-03-31T10:53:38;95490.81;;;13.77;96.15
28927;BME280;16038;47.692;9.400;2023-03-31T10:58:56;95484.41;;;14.95;84.38
28927;BME280;16038;47.692;9.400;2023-03-31T11:01:34;95494.25;;;14.52;86.17
28927;BME280;16038;47.692;9.400;2023-03-31T11:04:09;95482.78;;;14.34;89.26
28927;BME280;16038;47.692;9.400;2023-03-31T11:09:30;95484.31;;;13.64;89.19
28927;BME280;16038;47.692;9.400;2023-03-31T11:14:31;95510.44;;;12.87;97.10
28927;BME280;16038;47.692;9.400;2023-03-31T11:22:28;95443.38;;;11.67;91.50
28927;BME280;16038;47.692;9.400;2023-03-31T11:29:50;95502.34;;;11.30;98.80
28927;BME280;16038;47.692;9.400;2023-03-31T11:34:53;95444.28;;;10.86;92.23
28927;BME280;16038;47.692;9.400;2023-03-31T11:42:54;95470.19;;;10.57;85.86
28927;BME280;16038;47.692;9.400;2023-03-31T11:45:30;95535.53;;;10.51;86.53
28927;BME280;16038;47.692;9.400;2023-03-31T11:48:02;95495.66;;;10.54;86.00
28927;BME280;16038;47.692;9.400;2023-03-31T11:50:31;95419.75;;;10.61;79.66
28927;BME280;16038;47.692;9.400;2023-03-31T11:53:02;95463.97;;;10.52;85.54
28927;BME280;16038;47.692;9.400;2023-03-31T11:55:29;95432.63;;;10.68;84.58
28927;BME280;16038;47.692;9.400;2023-03-31T12:00:24;95429.97;;;11.24;72.60
28927;BME280;16038;47.692;9.400;2023-03-31T12:02:53;95398.38;;;11.57;69.09
28927;BME280;16038;47.692;9.400;2023-03-31T12:05:23;95404.63;;;12.07;68.36
28927;BME280;16038;47.692;9.400;2023-03-31T12:07:58;95391.47;;;12.59;64.15
28927;BME280;16038;47.692;9.400;2023-03-31T12:10:36;95386.25;;;13.23;67.03
28927;BME280;16038;47.692;9.400;2023-03-31T12:15:38;95391.13;;;13.66;65.28
28927;BME280;16038;47.692;9.400;2023-03-31T12:18:09;95389.75;;;13.54;65.25
28927;BME280;16038;47.692;9.400;2023-03-31T12:20:40;95399.50;;;13.59;63.64
28927;BME280;16038;47.692;9.400;2023-03-31T12:23:13;95402.66;;;13.30;64.59
28927;BME280;16038;47.692;9.400;2023-03-31T12:26:14;95407.03;;;13.55;64.83
28927;BME280;16038;47.692;9.400;2023-03-31T12:28:32;95403.19;;;13.22;66.43
28927;BME280;16038;47.692;9.400;2023-03-31T12:30:59;95416.97;;;13.49;66.16
28927;BME280;16038;47.692;9.400;2023-03-31T12:33:42;95411.59;;;13.89;65.07
28927;BME280;16038;47.692;9.400;2023-03-31T12:50:01;95423.69;;;12.21;82.90
28927;BME280;16038;47.692;9.400;2023-03-31T12:52:02;95440.13;;;11.79;86.90
28927;BME280;16038;47.692;9.400;2023-03-31T12:59:35;95528.72;;;11.06;89.97
28927;BME280;16038;47.692;9.400;2023-03-31T13:04:32;95513.53;;;9.04;100.00
28927;BME280;16038;47.692;9.400;2023-03-31T13:06:57;95539.66;;;8.94;100.00
28927;BME280;16038;47.692;9.400;2023-03-31T13:11:55;95529.19;;;9.17;100.00
28927;BME280;16038;47.692;9.400;2023-03-31T13:14:24;95527.66;;;9.34;100.00
28927;BME280;16038;47.692;9.400;2023-03-31T13:16:54;95492.19;;;9.60;100.00
28927;BME280;16038;47.692;9.400;2023-03-31T13:19:35;95501.19;;;10.00;100.00
28927;BME280;16038;47.692;9.400;2023-03-31T13:22:01;95487.81;;;10.56;98.70
28927;BME280;16038;47.692;9.400;2023-03-31T13:24:28;95473.88;;;11.17;92.31
28927;BME280;16038;47.692;9.400;2023-03-31T13:26:55;95470.00;;;11.63;91.21
28927;BME280;16038;47.692;9.400;2023-03-31T13:29:22;95455.81;;;11.75;86.11
28927;BME280;16038;47.692;9.400;2023-03-31T13:37:07;95452.91;;;12.38;80.14
28927;BME280;16038;47.692;9.400;2023-03-31T13:42:22;95440.16;;;12.21;73.08
28927;BME280;16038;47.692;9.400;2023-03-31T13:47:35;95443.34;;;12.16;70.32
28927;BME280;16038;47.692;9.400;2023-03-31T13:55:32;95440.75;;;11.49;69.91
28927;BME280;16038;47.692;9.400;2023-03-31T14:00:41;95435.66;;;11.51;71.69
28927;BME280;16038;47.692;9.400;2023-03-31T14:03:25;95453.28;;;11.46;72.33
28927;BME280;16038;47.692;9.400;2023-03-31T14:11:15;95471.38;;;11.40;72.53
28927;BME280;16038;47.692;9.400;2023-03-31T14:13:41;95465.09;;;11.40;75.04
28927;BME280;16038;47.692;9.400;2023-03-31T14:16:06;95458.66;;;11.61;74.20
28927;BME280;16038;47.692;9.400;2023-03-31T14:18:33;95470.38;;;11.69;73.49
28927;BME280;16038;47.692;9.400;2023-03-31T14:29:20;95458.38;;;11.48;78.75
28927;BME280;16038;47.692;9.400;2023-03-31T14:31:53;95440.00;;;11.41;78.68
28927;BME280;16038;47.692;9.400;2023-03-31T14:34:56;95430.75;;;11.24;80.19
28927;BME280;16038;47.692;9.400;2023-03-31T14:37:14;95422.88;;;11.30;80.56
28927;BME280;16038;47.692;9.400;2023-03-31T14:42:13;95422.94;;;11.72;81.38
28927;BME280;16038;47.692;9.400;2023-03-31T14:44:40;95414.22;;;11.84;78.91
28927;BME280;16038;47.692;9.400;2023-03-31T14:47:12;95409.19;;;11.75;80.83
28927;BME280;16038;47.692;9.400;2023-03-31T14:49:37;95393.56;;;11.72;79.98
28927;BME280;16038;47.692;9.400;2023-03-31T14:54:37;95384.47;;;11.79;78.24
28927;BME280;16038;47.692;9.400;2023-03-31T14:57:02;95374.69;;;11.78;74.36
28927;BME280;16038;47.692;9.400;2023-03-31T14:59:29;95366.03;;;11.83;73.28
28927;BME280;16038;47.692;9.400;2023-03-31T15:01:57;95363.72;;;11.78;72.51
28927;BME280;16038;47.692;9.400;2023-03-31T15:04:24;95367.69;;;11.73;68.78
28927;BME280;16038;47.692;9.400;2023-03-31T15:06:50;95366.91;;;11.73;68.19
28927;BME280;16038;47.692;9.400;2023-03-31T15:09:26;95371.69;;;11.65;66.44
28927;BME280;16038;47.692;9.400;2023-03-31T15:11:56;95365.00;;;11.66;68.08
28927;BME280;16038;47.692;9.400;2023-03-31T15:14:23;95370.72;;;11.82;66.70
28927;BME280;16038;47.692;9.400;2023-03-31T15:16:52;95373.69;;;11.57;63.75
28927;BME280;16038;47.692;9.400;2023-03-31T15:19:21;95378.81;;;11.55;63.18
28927;BME280;16038;47.692;9.400;2023-03-31T15:21:58;95377.84;;;11.31;63.92
28927;BME280;16038;47.692;9.400;2023-03-31T15:24:28;95386.03;;;11.35;64.08
28927;BME280;16038;47.692;9.400;2023-03-31T15:26:57;95394.38;;;11.17;64.25
28927;BME280;16038;47.692;9.400;2023-03-31T15:31:56;95430.44;;;11.08;65.78
28927;BME280;16038;47.692;9.400;2023-03-31T15:34:26;95429.44;;;10.77;79.88
28927;BME280;16038;47.692;9.400;2023-03-31T15:36:54;95511.25;;;9.24;100.00
28927;BME280;16038;47.692;9.400;2023-03-31T15:39:21;95545.03;;;8.72;100.00
28927;BME280;16038;47.692;9.400;2023-03-31T15:41:47;95570.41;;;8.24;100.00
28927;BME280;16038;47.692;9.400;2023-03-31T15:44:34;95560.41;;;7.88;100.00
28927;BME280;16038;47.692;9.400;2023-03-31T15:47:00;95544.38;;;7.79;100.00
28927;BME280;16038;47.692;9.400;2023-03-31T15:49:26;95539.53;;;7.61;100.00